Raspeburg, Maryland
Current Conditions -  °F | °C
As of 6:45 PM on Monday 24 Nov 2014 (Local Time) from KMTN Reporting Station
Clear Clear  
Wind Chill: 55°   Ceiling: Unl
Heat Index: 55°   Visibility: 10mi
Dew Point: 54°   Wind: 7mph
Humidity: 94%   Direction: 150°SSE
Pressure: 29.7"   Gusts: NA
Location:  39.3387°N, 76.5372°W
Report Text: KMTN 242345Z 15006KT 10SM SKC 13/12 A2970
Loading
Personal Weather Stations






























Interactive Weather Map New forecast layout! Learn more

10-Day Weather Forecast

Advertisements
Track Severe Weather on mobile